Terminal Aerodrome Forecast
Issued by NWS Binghamton, NY

Home | Current Version | Previous Version | Text Only | Print | Product List | Glossary On
Versions: 1 2 3 4 5 6 7 8 9 10 11 12 13 14 15 16 17 18 19 20 21
324
FTUS41 KBGM 290150 AAA
TAFBGM
TAF AMD
KBGM 290150Z 2902/2924 17010KT P6SM OVC025
      TEMPO 2902/2905 -SHRA
     FM290500 16010G18KT 5SM -RA BR OVC012
     FM291000 16010KT 4SM -SHRA BR OVC008
     FM291500 18010KT P6SM BKN008 OVC015
     FM292000 21008KT P6SM SCT025=

USA.gov is the U.S. government's official web portal to all federal, state and local government web resources and services.